createdAt,value
2018-08-20T00:00:52.137Z,101210.12
2018-08-20T00:03:20.359Z,101210.23
2018-08-20T00:05:52.604Z,101212.08
2018-08-20T00:08:20.841Z,101212.61
2018-08-20T00:10:51.863Z,101212.42
2018-08-20T00:13:20.089Z,101214.62
2018-08-20T00:15:48.316Z,101213.42
2018-08-20T00:18:21.869Z,101210.47
2018-08-20T00:20:50.066Z,101213.70
2018-08-20T00:23:18.289Z,101208.20
2018-08-20T00:25:46.509Z,101215.49
2018-08-20T00:28:14.716Z,101212.08
2018-08-20T00:30:43.494Z,101212.59
2018-08-20T00:33:11.841Z,101206.41
2018-08-20T00:35:40.105Z,101213.00
2018-08-20T00:38:08.329Z,101209.14
2018-08-20T00:40:36.549Z,101208.92
2018-08-20T00:43:04.828Z,101205.32
2018-08-20T00:45:33.024Z,101207.50
2018-08-20T00:48:01.249Z,101206.41
2018-08-20T00:50:29.445Z,101213.58
2018-08-20T00:52:57.648Z,101209.47
2018-08-20T00:55:25.845Z,101204.98
2018-08-20T00:57:54.077Z,101204.86
2018-08-20T01:00:22.301Z,101209.36
2018-08-20T01:02:50.533Z,101210.94
2018-08-20T01:05:18.769Z,101208.94
2018-08-20T01:07:46.973Z,101207.84
2018-08-20T01:10:15.215Z,101203.23
2018-08-20T01:12:43.463Z,101200.50
2018-08-20T01:15:11.685Z,101199.36
2018-08-20T01:17:39.889Z,101196.86
2018-08-20T01:20:08.197Z,101203.66
2018-08-20T01:22:36.410Z,101201.53
2018-08-20T01:25:04.710Z,101193.39
2018-08-20T01:27:32.930Z,101195.95
2018-08-20T01:30:01.177Z,101194.30
2018-08-20T01:32:29.385Z,101185.87
2018-08-20T01:35:13.216Z,101189.36
2018-08-20T01:37:41.869Z,101180.13
2018-08-20T01:40:10.084Z,101182.03
2018-08-20T01:42:38.304Z,101178.98
2018-08-20T01:45:06.565Z,101183.55
2018-08-20T01:47:34.805Z,101190.22
2018-08-20T01:50:03.053Z,101180.56
2018-08-20T01:52:31.289Z,101181.69
2018-08-20T01:54:59.495Z,101178.38
2018-08-20T01:57:27.781Z,101176.64
2018-08-20T01:59:56.090Z,101174.56
2018-08-20T02:02:24.309Z,101178.57
2018-08-20T02:04:52.537Z,101173.93
2018-08-20T02:07:20.757Z,101176.05
2018-08-20T02:09:49.063Z,101179.21
2018-08-20T02:12:17.301Z,101174.27
2018-08-20T02:14:45.544Z,101171.17
2018-08-20T02:17:13.742Z,101176.91
2018-08-20T02:19:41.941Z,101174.80
2018-08-20T02:22:10.165Z,101181.86
2018-08-20T02:24:38.389Z,101180.88
2018-08-20T02:27:06.617Z,101173.14
2018-08-20T02:29:34.825Z,101168.27
2018-08-20T02:32:03.045Z,101161.48
2018-08-20T02:34:31.241Z,101161.48
2018-08-20T02:36:59.460Z,101160.46
2018-08-20T02:39:27.671Z,101160.88
2018-08-20T02:41:55.886Z,101158.31
2018-08-20T02:44:24.129Z,101156.73
2018-08-20T02:46:53.785Z,101164.69
2018-08-20T02:49:22.037Z,101154.12
2018-08-20T02:51:50.853Z,101155.67
2018-08-20T02:54:19.113Z,101150.32
2018-08-20T02:56:47.333Z,101146.20
2018-08-20T02:59:15.977Z,101149.78
2018-08-20T03:01:44.177Z,101147.48
2018-08-20T03:04:12.401Z,101141.90
2018-08-20T03:06:40.643Z,101145.71
2018-08-20T03:09:12.511Z,101146.39
2018-08-20T03:11:40.734Z,101142.20
2018-08-20T03:14:09.020Z,101138.92
2018-08-20T03:16:37.800Z,101140.92
2018-08-20T03:19:06.592Z,101140.52
2018-08-20T03:21:34.811Z,101140.62
2018-08-20T03:24:03.128Z,101133.16
2018-08-20T03:26:31.460Z,101138.85
2018-08-20T03:29:00.265Z,101133.27
2018-08-20T03:31:28.518Z,101137.48
2018-08-20T03:33:56.729Z,101142.59
2018-08-20T03:36:25.009Z,101143.34
2018-08-20T03:38:53.205Z,101145.41
2018-08-20T03:41:21.434Z,101146.34
2018-08-20T03:43:49.760Z,101145.43
2018-08-20T03:46:17.997Z,101151.20
2018-08-20T03:48:46.229Z,101161.73
2018-08-20T03:51:14.500Z,101159.96
2018-08-20T03:53:42.705Z,101159.27
2018-08-20T03:56:10.937Z,101165.28
2018-08-20T03:58:39.150Z,101158.91
2018-08-20T04:01:07.421Z,101163.05
2018-08-20T04:03:35.657Z,101158.74
2018-08-20T04:06:03.925Z,101164.22
2018-08-20T04:08:32.133Z,101161.84
2018-08-20T04:11:00.397Z,101163.91
2018-08-20T04:13:28.629Z,101165.28
2018-08-20T04:15:56.842Z,101165.17
2018-08-20T04:18:25.057Z,101168.75
2018-08-20T04:20:53.266Z,101170.25
2018-08-20T04:23:21.517Z,101170.25
2018-08-20T04:25:49.749Z,101176.21
2018-08-20T04:28:17.977Z,101174.93
2018-08-20T04:30:46.259Z,101172.03
2018-08-20T04:33:14.433Z,101173.16
2018-08-20T04:35:42.647Z,101180.86
2018-08-20T04:38:10.865Z,101174.36
2018-08-20T04:40:39.094Z,101184.08
2018-08-20T04:43:07.477Z,101190.98
2018-08-20T04:45:35.677Z,101183.16
2018-08-20T04:48:03.913Z,101183.95
2018-08-20T04:50:32.316Z,101190.21
2018-08-20T04:53:00.926Z,101189.36
2018-08-20T04:55:29.152Z,101188.44
2018-08-20T04:57:57.364Z,101194.53
2018-08-20T05:00:25.616Z,101186.27
2018-08-20T05:02:53.820Z,101190.34
2018-08-20T05:05:22.033Z,101192.23
2018-08-20T05:07:50.245Z,101199.28
2018-08-20T05:10:18.485Z,101207.73
2018-08-20T05:12:46.698Z,101207.31
2018-08-20T05:15:14.943Z,101210.49
2018-08-20T05:17:43.173Z,101209.66
2018-08-20T05:20:11.418Z,101213.78
2018-08-20T05:22:39.746Z,101217.01
2018-08-20T05:25:08.193Z,101216.19
2018-08-20T05:27:36.449Z,101220.60
2018-08-20T05:30:05.141Z,101219.06
2018-08-20T05:32:33.362Z,101225.50
2018-08-20T05:35:01.569Z,101216.13
2018-08-20T05:37:29.841Z,101217.54
2018-08-20T05:39:58.061Z,101222.59
2018-08-20T05:42:26.281Z,101221.73
2018-08-20T05:44:54.510Z,101221.73
2018-08-20T05:47:22.701Z,101217.77
2018-08-20T05:49:50.915Z,101221.32
2018-08-20T05:52:19.149Z,101215.81
2018-08-20T05:54:47.353Z,101211.70
2018-08-20T05:57:15.577Z,101215.02
2018-08-20T05:59:43.785Z,101215.95
2018-08-20T06:02:12.021Z,101222.63
2018-08-20T06:04:40.238Z,101226.36
2018-08-20T06:07:08.493Z,101232.63
2018-08-20T06:09:36.698Z,101230.51
2018-08-20T06:12:04.937Z,101232.80
2018-08-20T06:14:33.140Z,101229.07
2018-08-20T06:17:01.341Z,101239.12
2018-08-20T06:19:29.554Z,101239.73
2018-08-20T06:21:57.782Z,101236.19
2018-08-20T06:24:26.009Z,101235.97
2018-08-20T06:26:54.269Z,101240.01
2018-08-20T06:29:22.494Z,101245.75
2018-08-20T06:31:50.750Z,101247.84
2018-08-20T06:34:19.041Z,101245.55
2018-08-20T06:36:47.253Z,101258.12
2018-08-20T06:39:15.494Z,101255.47
2018-08-20T06:41:43.732Z,101256.96
2018-08-20T06:44:11.906Z,101258.20
2018-08-20T06:46:40.165Z,101249.39
2018-08-20T06:49:09.201Z,101263.73
2018-08-20T06:51:37.649Z,101266.79
2018-08-20T06:54:06.119Z,101267.66
2018-08-20T06:56:34.329Z,101260.61
2018-08-20T06:59:02.565Z,101263.59
2018-08-20T07:01:30.849Z,101268.17
2018-08-20T07:03:59.334Z,101271.08
2018-08-20T07:06:27.619Z,101271.20
2018-08-20T07:08:55.780Z,101271.56
2018-08-20T07:11:24.049Z,101275.60
2018-08-20T07:13:52.305Z,101272.20
2018-08-20T07:16:20.525Z,101269.09
2018-08-20T07:18:48.757Z,101274.18
2018-08-20T07:21:16.989Z,101273.98
2018-08-20T07:23:45.260Z,101276.69
2018-08-20T07:26:13.458Z,101273.39
2018-08-20T07:28:42.765Z,101283.95
2018-08-20T07:31:10.967Z,101284.04
2018-08-20T07:33:39.210Z,101285.41
2018-08-20T07:36:07.466Z,101293.70
2018-08-20T07:38:35.693Z,101296.34
2018-08-20T07:41:03.936Z,101296.89
2018-08-20T07:43:32.142Z,101294.09
2018-08-20T07:46:00.986Z,101297.01
2018-08-20T07:48:29.231Z,101298.45
2018-08-20T07:50:57.510Z,101296.91
2018-08-20T07:53:26.786Z,101304.83
2018-08-20T07:55:55.081Z,101297.73
2018-08-20T07:58:23.374Z,101302.36
2018-08-20T08:00:51.677Z,101298.16
2018-08-20T08:03:29.237Z,101303.00
2018-08-20T08:05:58.678Z,101303.30
2018-08-20T08:08:27.106Z,101305.30
2018-08-20T08:10:55.444Z,101307.57
2018-08-20T08:13:23.729Z,101309.58
2018-08-20T08:15:52.029Z,101302.55
2018-08-20T08:18:20.285Z,101307.86
2018-08-20T08:20:48.523Z,101306.99
2018-08-20T08:23:16.789Z,101319.31
2018-08-20T08:25:45.045Z,101316.98
2018-08-20T08:28:13.289Z,101315.78
2018-08-20T08:30:41.907Z,101316.91
2018-08-20T08:33:10.169Z,101315.76
2018-08-20T08:35:38.401Z,101310.72
2018-08-20T08:38:06.870Z,101301.75
2018-08-20T08:40:35.000Z,101312.64
2018-08-20T08:43:03.246Z,101309.29
2018-08-20T08:45:31.445Z,101308.26
2018-08-20T08:47:59.674Z,101307.84
2018-08-20T08:50:27.921Z,101303.86
2018-08-20T08:52:56.150Z,101302.14
2018-08-20T08:55:24.397Z,101301.97
2018-08-20T08:57:52.681Z,101303.48
2018-08-20T09:00:21.540Z,101298.13
2018-08-20T09:02:49.786Z,101305.77
2018-08-20T09:05:18.044Z,101302.20
2018-08-20T09:07:46.318Z,101307.45
2018-08-20T09:10:14.549Z,101313.94
2018-08-20T09:12:43.860Z,101309.23
2018-08-20T09:15:15.049Z,101306.17
2018-08-20T09:17:43.506Z,101305.91
2018-08-20T09:20:13.866Z,101303.05
2018-08-20T09:22:42.141Z,101298.06
2018-08-20T09:25:11.724Z,101298.44
2018-08-20T09:27:40.245Z,101304.53
2018-08-20T09:30:18.633Z,101314.67
2018-08-20T09:32:47.554Z,101315.02
2018-08-20T09:35:15.790Z,101301.77
2018-08-20T09:37:44.005Z,101309.42
2018-08-20T09:40:12.802Z,101307.70
2018-08-20T09:42:41.717Z,101302.69
2018-08-20T09:45:10.250Z,101305.77
2018-08-20T09:47:39.450Z,101305.48
2018-08-20T09:50:09.357Z,101304.19
2018-08-20T09:52:37.594Z,101312.27
2018-08-20T09:55:06.206Z,101307.59
2018-08-20T09:57:34.445Z,101308.64
2018-08-20T10:00:02.774Z,101304.02
2018-08-20T10:02:30.989Z,101301.87
2018-08-20T10:04:59.521Z,101301.30
2018-08-20T10:07:27.729Z,101296.05
2018-08-20T10:09:56.021Z,101303.48
2018-08-20T10:12:24.278Z,101299.38
2018-08-20T10:14:52.605Z,101298.06
2018-08-20T10:17:20.824Z,101301.45
2018-08-20T10:19:49.025Z,101291.63
2018-08-20T10:22:17.249Z,101305.20
2018-08-20T10:24:45.495Z,101299.03
2018-08-20T10:27:13.682Z,101295.54
2018-08-20T10:29:41.939Z,101295.41
2018-08-20T10:32:10.250Z,101302.03
2018-08-20T10:34:38.409Z,101298.45
2018-08-20T10:37:06.634Z,101293.39
2018-08-20T10:39:34.866Z,101294.80
2018-08-20T10:42:03.101Z,101292.78
2018-08-20T10:44:35.465Z,101294.02
2018-08-20T10:47:03.789Z,101298.70
2018-08-20T10:49:32.005Z,101306.61
2018-08-20T10:52:00.249Z,101309.86
2018-08-20T10:54:28.540Z,101315.53
2018-08-20T10:56:56.781Z,101315.45
2018-08-20T10:59:25.001Z,101310.97
2018-08-20T11:01:53.251Z,101320.75
2018-08-20T11:04:21.470Z,101321.94
2018-08-20T11:06:49.669Z,101321.81
2018-08-20T11:09:17.897Z,101324.41
2018-08-20T11:11:46.105Z,101322.08
2018-08-20T11:14:14.412Z,101323.94
2018-08-20T11:16:42.585Z,101328.30
2018-08-20T11:19:10.817Z,101329.11
2018-08-20T11:21:39.033Z,101324.84
2018-08-20T11:24:07.296Z,101328.04
2018-08-20T11:26:35.523Z,101322.02
2018-08-20T11:29:03.853Z,101315.71
2018-08-20T11:31:32.118Z,101317.66
2018-08-20T11:34:00.373Z,101311.03
2018-08-20T11:36:29.146Z,101317.27
2018-08-20T11:38:57.362Z,101309.59
2018-08-20T11:41:25.622Z,101309.05
2018-08-20T11:43:53.845Z,101316.31
2018-08-20T11:46:22.053Z,101313.55
2018-08-20T11:48:50.289Z,101312.95
2018-08-20T11:51:18.517Z,101312.12
2018-08-20T11:53:46.763Z,101311.30
2018-08-20T11:56:16.075Z,101306.39
2018-08-20T11:58:44.292Z,101306.78
2018-08-20T12:01:12.531Z,101303.10
2018-08-20T12:03:40.725Z,101303.75
2018-08-20T12:06:08.966Z,101308.15
2018-08-20T12:08:37.157Z,101302.75
2018-08-20T12:11:05.381Z,101305.21
2018-08-20T12:13:33.593Z,101304.39
2018-08-20T12:16:01.809Z,101307.52
2018-08-20T12:18:30.006Z,101314.42
2018-08-20T12:20:58.253Z,101307.86
2018-08-20T12:23:26.501Z,101311.54
2018-08-20T12:25:54.727Z,101308.67
2018-08-20T12:28:22.942Z,101311.63
2018-08-20T12:30:51.212Z,101309.17
2018-08-20T12:33:19.392Z,101306.11
2018-08-20T12:35:47.597Z,101309.17
2018-08-20T12:38:15.833Z,101306.53
2018-08-20T12:40:44.061Z,101301.63
2018-08-20T12:43:12.289Z,101304.39
2018-08-20T12:45:40.515Z,101304.23
2018-08-20T12:48:08.809Z,101306.38
2018-08-20T12:50:37.043Z,101306.64
2018-08-20T12:53:05.277Z,101309.69
2018-08-20T12:55:33.529Z,101314.70
2018-08-20T12:58:01.769Z,101307.36
2018-08-20T13:00:30.035Z,101311.33
2018-08-20T13:02:58.227Z,101309.63
2018-08-20T13:05:26.489Z,101313.05
2018-08-20T13:07:54.737Z,101307.31
2018-08-20T13:10:22.979Z,101306.27
2018-08-20T13:12:51.197Z,101301.53
2018-08-20T13:15:20.484Z,101313.20
2018-08-20T13:17:48.698Z,101310.30
2018-08-20T13:20:16.906Z,101313.23
2018-08-20T13:22:45.169Z,101303.10
2018-08-20T13:25:13.389Z,101303.61
2018-08-20T13:27:41.638Z,101301.79
2018-08-20T13:30:10.445Z,101294.76
2018-08-20T13:32:38.754Z,101297.81
2018-08-20T13:35:07.562Z,101304.39
2018-08-20T13:37:35.794Z,101299.56
2018-08-20T13:40:04.241Z,101289.95
2018-08-20T13:42:32.514Z,101290.02
2018-08-20T13:45:00.969Z,101289.88
2018-08-20T13:47:29.162Z,101288.08
2018-08-20T13:50:04.283Z,101288.98
2018-08-20T13:52:32.484Z,101289.08
2018-08-20T13:55:00.698Z,101284.28
2018-08-20T13:57:33.074Z,101289.01
2018-08-20T14:00:01.349Z,101292.19
2018-08-20T14:02:29.617Z,101285.18
2018-08-20T14:04:57.833Z,101292.03
2018-08-20T14:07:26.076Z,101292.49
2018-08-20T14:09:54.327Z,101283.09
2018-08-20T14:12:22.585Z,101287.34
2018-08-20T14:14:50.814Z,101283.91
2018-08-20T14:17:19.073Z,101283.60
2018-08-20T14:19:47.310Z,101273.13
2018-08-20T14:22:15.521Z,101283.60
2018-08-20T14:24:43.753Z,101277.28
2018-08-20T14:27:11.995Z,101276.48
2018-08-20T14:29:40.249Z,101274.92
2018-08-20T14:32:08.469Z,101273.75
2018-08-20T14:34:36.691Z,101277.19
2018-08-20T14:37:05.334Z,101275.80
2018-08-20T14:39:33.545Z,101283.46
2018-08-20T14:42:01.784Z,101280.64
2018-08-20T14:44:29.989Z,101284.55
2018-08-20T14:46:58.198Z,101275.48
2018-08-20T14:49:26.418Z,101272.98
2018-08-20T14:51:54.654Z,101270.46
2018-08-20T14:54:22.885Z,101270.16
2018-08-20T14:56:51.057Z,101275.31
2018-08-20T14:59:19.285Z,101270.17
2018-08-20T15:01:47.534Z,101270.38
2018-08-20T15:04:15.748Z,101265.10
2018-08-20T15:06:57.825Z,101265.46
2018-08-20T15:09:27.391Z,101272.26
2018-08-20T15:11:56.133Z,101270.23
2018-08-20T15:14:24.350Z,101270.70
2018-08-20T15:16:52.681Z,101268.12
2018-08-20T15:19:20.893Z,101265.08
2018-08-20T15:21:49.420Z,101262.48
2018-08-20T15:24:18.729Z,101261.31
2018-08-20T15:26:47.965Z,101264.13
2018-08-20T15:29:16.655Z,101259.38
2018-08-20T15:31:44.862Z,101266.93
2018-08-20T15:34:13.077Z,101262.56
2018-08-20T15:36:41.606Z,101258.41
2018-08-20T15:39:10.221Z,101262.84
2018-08-20T15:41:38.437Z,101266.89
2018-08-20T15:44:07.929Z,101264.23
2018-08-20T15:46:36.125Z,101266.16
2018-08-20T15:49:04.910Z,101262.21
2018-08-20T15:51:33.113Z,101248.59
2018-08-20T15:54:01.329Z,101250.84
2018-08-20T15:56:29.577Z,101248.59
2018-08-20T15:58:57.877Z,101248.12
2018-08-20T16:01:26.089Z,101254.60
2018-08-20T16:03:54.641Z,101250.51
2018-08-20T16:06:24.745Z,101244.13
2018-08-20T16:08:52.993Z,101249.28
2018-08-20T16:11:21.242Z,101250.67
2018-08-20T16:13:49.461Z,101253.17
2018-08-20T16:16:17.682Z,101246.49
2018-08-20T16:18:45.905Z,101252.87
2018-08-20T16:21:14.105Z,101247.56
2018-08-20T16:23:42.317Z,101243.26
2018-08-20T16:26:10.537Z,101240.34
2018-08-20T16:28:38.803Z,101238.17
2018-08-20T16:31:07.061Z,101233.79
2018-08-20T16:33:35.269Z,101235.98
2018-08-20T16:36:03.529Z,101228.23
2018-08-20T16:38:31.761Z,101228.41
2018-08-20T16:41:00.019Z,101222.84
2018-08-20T16:43:28.278Z,101233.11
2018-08-20T16:45:56.497Z,101231.28
2018-08-20T16:48:24.725Z,101235.97
2018-08-20T16:50:52.970Z,101225.81
2018-08-20T16:53:21.205Z,101228.23
2018-08-20T16:55:49.461Z,101229.42
2018-08-20T16:58:17.678Z,101224.98
2018-08-20T17:00:45.937Z,101223.90
2018-08-20T17:03:14.201Z,101225.67
2018-08-20T17:05:48.526Z,101223.08
2018-08-20T17:08:21.878Z,101221.30
2018-08-20T17:10:50.134Z,101223.50
2018-08-20T17:13:18.389Z,101219.73
2018-08-20T17:15:46.621Z,101219.29
2018-08-20T17:18:14.865Z,101224.05
2018-08-20T17:20:43.113Z,101216.95
2018-08-20T17:23:16.025Z,101221.47
2018-08-20T17:25:44.334Z,101217.63
2018-08-20T17:28:12.602Z,101213.65
2018-08-20T17:30:40.849Z,101218.31
2018-08-20T17:33:09.174Z,101219.14
2018-08-20T17:35:39.674Z,101221.23
2018-08-20T17:38:07.921Z,101226.37
2018-08-20T17:40:37.250Z,101231.66
2018-08-20T17:43:05.921Z,101231.97
2018-08-20T17:45:35.143Z,101235.34
2018-08-20T17:48:03.411Z,101250.16
2018-08-20T17:50:40.657Z,101247.55
2018-08-20T17:53:09.013Z,101245.97
2018-08-20T17:55:37.253Z,101246.12
2018-08-20T17:58:05.526Z,101252.27
2018-08-20T18:00:54.966Z,101253.31
2018-08-20T18:03:28.330Z,101253.59
2018-08-20T18:05:57.834Z,101258.91
2018-08-20T18:08:27.197Z,101251.31
2018-08-20T18:10:55.466Z,101248.89
2018-08-20T18:13:36.553Z,101257.63
2018-08-20T18:16:06.561Z,101253.48
2018-08-20T18:18:35.461Z,101257.46
2018-08-20T18:21:03.704Z,101256.54
2018-08-20T18:23:33.181Z,101264.61
2018-08-20T18:26:01.477Z,101266.08
2018-08-20T18:28:35.394Z,101265.73
2018-08-20T18:31:08.757Z,101275.02
2018-08-20T18:33:36.981Z,101270.70
2018-08-20T18:36:10.118Z,101273.84
2018-08-20T18:38:44.476Z,101268.39
2018-08-20T18:41:12.778Z,101275.22
2018-08-20T18:43:41.082Z,101275.03
2018-08-20T18:46:09.333Z,101291.08
2018-08-20T18:48:38.584Z,101290.81
2018-08-20T18:51:07.715Z,101293.45
2018-08-20T18:53:35.941Z,101295.36
2018-08-20T18:56:10.885Z,101295.88
2018-08-20T18:58:39.113Z,101300.20
2018-08-20T19:01:07.909Z,101301.00
2018-08-20T19:03:41.414Z,101298.81
2018-08-20T19:06:09.640Z,101301.78
2018-08-20T19:08:39.696Z,101305.11
2018-08-20T19:11:08.257Z,101312.94
2018-08-20T19:13:36.545Z,101307.17
2018-08-20T19:16:37.708Z,101310.83
2018-08-20T19:19:06.858Z,101311.87
2018-08-20T19:21:37.989Z,101312.02
2018-08-20T19:24:07.373Z,101311.34
2018-08-20T19:26:35.795Z,101316.05
2018-08-20T19:29:15.320Z,101313.12
2018-08-20T19:31:43.551Z,101313.21
2018-08-20T19:34:11.821Z,101311.48
2018-08-20T19:36:40.066Z,101314.27
2018-08-20T19:39:08.305Z,101314.67
2018-08-20T19:41:36.545Z,101317.09
2018-08-20T19:44:04.809Z,101323.27
2018-08-20T19:46:38.508Z,101319.43
2018-08-20T19:49:14.984Z,101322.75
2018-08-20T19:51:45.258Z,101315.86
2018-08-20T19:54:15.009Z,101316.91
2018-08-20T19:56:43.312Z,101315.27
2018-08-20T19:59:11.914Z,101322.22
2018-08-20T20:01:40.303Z,101321.02
2018-08-20T20:04:13.460Z,101321.48
2018-08-20T20:06:42.494Z,101319.84
2018-08-20T20:09:11.136Z,101319.28
2018-08-20T20:11:43.899Z,101316.23
2018-08-20T20:14:12.157Z,101321.30
2018-08-20T20:16:45.493Z,101318.78
2018-08-20T20:19:13.729Z,101325.19
2018-08-20T20:21:42.009Z,101326.73
2018-08-20T20:24:11.098Z,101326.19
2018-08-20T20:26:39.481Z,101328.70
2018-08-20T20:29:08.816Z,101326.05
2018-08-20T20:31:37.881Z,101326.28
2018-08-20T20:34:06.356Z,101331.22
2018-08-20T20:36:34.593Z,101331.72
2018-08-20T20:39:02.838Z,101327.05
2018-08-20T20:41:31.054Z,101330.40
2018-08-20T20:43:59.324Z,101338.52
2018-08-20T20:46:27.544Z,101336.97
2018-08-20T20:48:55.793Z,101337.01
2018-08-20T20:51:24.074Z,101335.28
2018-08-20T20:53:52.312Z,101327.88
2018-08-20T20:56:20.546Z,101344.20
2018-08-20T20:58:48.764Z,101332.18
2018-08-20T21:01:17.086Z,101336.61
2018-08-20T21:03:46.370Z,101347.20
2018-08-20T21:06:14.619Z,101345.58
2018-08-20T21:08:48.968Z,101346.39
2018-08-20T21:11:18.385Z,101350.11
2018-08-20T21:13:47.914Z,101354.36
2018-08-20T21:16:18.869Z,101355.41
2018-08-20T21:18:49.913Z,101355.15
2018-08-20T21:21:18.847Z,101353.06
2018-08-20T21:23:47.105Z,101350.98
2018-08-20T21:26:15.445Z,101349.78
2018-08-20T21:28:45.013Z,101347.45
2018-08-20T21:31:14.228Z,101349.98
2018-08-20T21:33:43.137Z,101342.95
2018-08-20T21:36:12.033Z,101346.55
2018-08-20T21:38:40.251Z,101349.70
2018-08-20T21:41:08.497Z,101354.87
2018-08-20T21:43:42.081Z,101356.08
2018-08-20T21:46:10.921Z,101352.58
2018-08-20T21:48:39.729Z,101357.38
2018-08-20T21:51:13.325Z,101360.14
2018-08-20T21:53:41.542Z,101359.97
2018-08-20T21:56:11.677Z,101353.75
2018-08-20T21:58:41.289Z,101360.97
2018-08-20T22:01:10.952Z,101363.08
2018-08-20T22:03:39.605Z,101374.72
2018-08-20T22:06:07.855Z,101370.36
2018-08-20T22:08:36.092Z,101368.59
2018-08-20T22:11:04.323Z,101370.33
2018-08-20T22:13:32.566Z,101366.73
2018-08-20T22:16:15.681Z,101371.98
2018-08-20T22:18:45.323Z,101373.23
2018-08-20T22:21:15.741Z,101374.02
2018-08-20T22:23:44.874Z,101370.33
2018-08-20T22:26:18.873Z,101371.38
2018-08-20T22:28:50.244Z,101370.80
2018-08-20T22:31:18.576Z,101375.06
2018-08-20T22:33:53.221Z,101368.39
2018-08-20T22:36:21.425Z,101364.47
2018-08-20T22:38:53.650Z,101367.41
2018-08-20T22:41:23.049Z,101370.97
2018-08-20T22:43:51.480Z,101366.38
2018-08-20T22:46:20.664Z,101376.88
2018-08-20T22:48:51.704Z,101373.08
2018-08-20T22:51:20.520Z,101382.47
2018-08-20T22:53:51.057Z,101379.24
2018-08-20T22:56:23.161Z,101385.57
2018-08-20T22:58:51.724Z,101379.82
2018-08-20T23:01:20.098Z,101379.41
2018-08-20T23:03:48.329Z,101377.75
2018-08-20T23:06:16.605Z,101375.10
2018-08-20T23:08:44.829Z,101378.41
2018-08-20T23:11:13.107Z,101373.41
2018-08-20T23:13:41.316Z,101372.67
2018-08-20T23:16:09.565Z,101373.13
2018-08-20T23:18:37.789Z,101369.06
2018-08-20T23:21:06.073Z,101371.05
2018-08-20T23:23:37.925Z,101376.05
2018-08-20T23:26:10.385Z,101376.96
2018-08-20T23:28:40.839Z,101381.84
2018-08-20T23:31:09.084Z,101377.96
2018-08-20T23:33:38.848Z,101376.42
2018-08-20T23:36:07.393Z,101370.84
2018-08-20T23:38:35.643Z,101371.12
2018-08-20T23:41:03.953Z,101373.35
2018-08-20T23:43:32.237Z,101374.06
2018-08-20T23:46:00.525Z,101370.78
2018-08-20T23:48:28.781Z,101373.11
2018-08-20T23:51:01.154Z,101369.70
2018-08-20T23:53:29.441Z,101372.05
2018-08-20T23:55:57.713Z,101378.20
2018-08-20T23:58:25.933Z,101373.55
